createdAt,value
2023-01-25T00:00:36.672Z,1038.75
2023-01-25T00:01:37.038Z,1038.74
2023-01-25T00:02:37.448Z,1038.69
2023-01-25T00:03:37.762Z,1038.70
2023-01-25T00:04:38.061Z,1038.60
2023-01-25T00:05:38.461Z,1038.60
2023-01-25T00:06:38.813Z,1038.58
2023-01-25T00:07:39.185Z,1038.57
2023-01-25T00:08:39.480Z,1038.56
2023-01-25T00:09:39.835Z,1038.56
2023-01-25T00:10:40.193Z,1038.57
2023-01-25T00:11:40.627Z,1038.52
2023-01-25T00:12:40.974Z,1038.50
2023-01-25T00:13:41.266Z,1038.50
2023-01-25T00:14:41.735Z,1038.51
2023-01-25T00:15:41.953Z,1038.48
2023-01-25T00:16:42.378Z,1038.48
2023-01-25T00:17:42.687Z,1038.44
2023-01-25T00:18:43.048Z,1038.39
2023-01-25T00:19:43.379Z,1038.39
2023-01-25T00:20:43.731Z,1038.38
2023-01-25T00:21:44.063Z,1038.34
2023-01-25T00:22:44.516Z,1038.27
2023-01-25T00:23:44.874Z,1038.28
2023-01-25T00:24:45.175Z,1038.35
2023-01-25T00:25:45.549Z,1038.29
2023-01-25T00:26:45.874Z,1038.34
2023-01-25T00:27:46.263Z,1038.33
2023-01-25T00:28:46.643Z,1038.32
2023-01-25T00:29:46.988Z,1038.33
2023-01-25T00:30:47.325Z,1038.31
2023-01-25T00:31:47.801Z,1038.30
2023-01-25T00:32:48.229Z,1038.24
2023-01-25T00:33:48.451Z,1038.29
2023-01-25T00:34:48.785Z,1038.23
2023-01-25T00:35:49.162Z,1038.22
2023-01-25T00:36:49.495Z,1038.20
2023-01-25T00:37:50.015Z,1038.29
2023-01-25T00:38:50.196Z,1038.22
2023-01-25T00:39:50.595Z,1038.23
2023-01-25T00:40:50.942Z,1038.20
2023-01-25T00:41:51.327Z,1038.20
2023-01-25T00:42:51.674Z,1038.14
2023-01-25T00:43:52.004Z,1038.13
2023-01-25T00:44:52.365Z,1038.09
2023-01-25T00:45:52.787Z,1038.06
2023-01-25T00:46:53.082Z,1038.08
2023-01-25T00:47:53.461Z,1038.07
2023-01-25T00:48:53.755Z,1038.10
2023-01-25T00:49:54.118Z,1038.10
2023-01-25T00:50:54.475Z,1038.14
2023-01-25T00:51:54.835Z,1038.11
2023-01-25T00:52:55.224Z,1038.13
2023-01-25T00:53:55.550Z,1038.16
2023-01-25T00:54:55.853Z,1038.05
2023-01-25T00:55:56.253Z,1038.10
2023-01-25T00:56:56.738Z,1038.01
2023-01-25T00:57:56.936Z,1038.03
2023-01-25T00:58:57.301Z,1037.99
2023-01-25T00:59:57.648Z,1037.99
2023-01-25T01:00:58.023Z,1037.95
2023-01-25T01:01:58.476Z,1037.95
2023-01-25T01:02:58.767Z,1037.97
2023-01-25T01:03:59.060Z,1037.98
2023-01-25T01:04:59.546Z,1037.97
2023-01-25T01:05:59.767Z,1037.98
2023-01-25T01:07:00.145Z,1037.98
2023-01-25T01:08:00.547Z,1037.96
2023-01-25T01:09:00.814Z,1037.94
2023-01-25T01:10:01.180Z,1037.99
2023-01-25T01:11:01.525Z,1038.00
2023-01-25T01:12:01.925Z,1037.99
2023-01-25T01:13:02.246Z,1037.98
2023-01-25T01:14:02.615Z,1038.01
2023-01-25T01:15:02.977Z,1037.92
2023-01-25T01:16:03.331Z,1037.96
2023-01-25T01:17:03.749Z,1037.96
2023-01-25T01:18:04.043Z,1037.97
2023-01-25T01:19:04.416Z,1037.95
2023-01-25T01:20:04.750Z,1037.98
2023-01-25T01:21:05.196Z,1037.97
2023-01-25T01:22:05.498Z,1037.91
2023-01-25T01:23:05.857Z,1037.91
2023-01-25T01:24:06.272Z,1037.89
2023-01-25T01:25:06.942Z,1037.88
2023-01-25T01:26:06.952Z,1037.90
2023-01-25T01:27:07.254Z,1037.88
2023-01-25T01:28:07.611Z,1037.82
2023-01-25T01:29:07.935Z,1037.83
2023-01-25T01:30:08.301Z,1037.80
2023-01-25T01:31:08.694Z,1037.81
2023-01-25T01:32:09.229Z,1037.84
2023-01-25T01:33:09.425Z,1037.84
2023-01-25T01:34:09.807Z,1037.86
2023-01-25T01:35:10.375Z,1037.85
2023-01-25T01:36:10.455Z,1037.87
2023-01-25T01:37:10.828Z,1037.85
2023-01-25T01:38:11.223Z,1037.86
2023-01-25T01:39:11.545Z,1037.86
2023-01-25T01:40:11.911Z,1037.89
2023-01-25T01:41:12.260Z,1037.88
2023-01-25T01:42:12.630Z,1037.85
2023-01-25T01:43:12.942Z,1037.90
2023-01-25T01:44:13.260Z,1037.82
2023-01-25T01:45:13.643Z,1037.86
2023-01-25T01:46:14.082Z,1037.85
2023-01-25T01:47:14.387Z,1037.87
2023-01-25T01:48:14.786Z,1037.85
2023-01-25T01:49:15.116Z,1037.82
2023-01-25T01:50:15.466Z,1037.82
2023-01-25T01:51:17.106Z,1037.81
2023-01-25T01:52:16.226Z,1037.79
2023-01-25T01:53:16.615Z,1037.77
2023-01-25T01:54:16.924Z,1037.73
2023-01-25T01:55:17.302Z,1037.72
2023-01-25T01:56:17.704Z,1037.68
2023-01-25T01:57:18.036Z,1037.69
2023-01-25T01:58:18.428Z,1037.70
2023-01-25T01:59:18.765Z,1037.68
2023-01-25T02:00:19.118Z,1037.71
2023-01-25T02:01:19.470Z,1037.67
2023-01-25T02:02:19.900Z,1037.73
2023-01-25T02:03:20.250Z,1037.68
2023-01-25T02:04:20.544Z,1037.66
2023-01-25T02:05:20.934Z,1037.64
2023-01-25T02:06:21.325Z,1037.66
2023-01-25T02:07:21.643Z,1037.64
2023-01-25T02:08:22.071Z,1037.58
2023-01-25T02:09:22.388Z,1037.61
2023-01-25T02:10:22.749Z,1037.61
2023-01-25T02:11:23.103Z,1037.61
2023-01-25T02:12:23.493Z,1037.57
2023-01-25T02:13:23.875Z,1037.56
2023-01-25T02:14:24.193Z,1037.59
2023-01-25T02:15:24.538Z,1037.55
2023-01-25T02:16:24.896Z,1037.49
2023-01-25T02:17:25.244Z,1037.49
2023-01-25T02:18:25.639Z,1037.47
2023-01-25T02:19:25.971Z,1037.47
2023-01-25T02:20:26.419Z,1037.43
2023-01-25T02:21:26.695Z,1037.45
2023-01-25T02:22:27.078Z,1037.47
2023-01-25T02:23:27.451Z,1037.53
2023-01-25T02:24:27.849Z,1037.52
2023-01-25T02:25:28.155Z,1037.49
2023-01-25T02:26:28.548Z,1037.49
2023-01-25T02:27:28.872Z,1037.45
2023-01-25T02:28:29.258Z,1037.48
2023-01-25T02:29:29.621Z,1037.45
2023-01-25T02:30:29.962Z,1037.52
2023-01-25T02:31:30.478Z,1037.44
2023-01-25T02:32:30.691Z,1037.50
2023-01-25T02:33:31.097Z,1037.49
2023-01-25T02:34:31.393Z,1037.48
2023-01-25T02:35:31.741Z,1037.48
2023-01-25T02:36:32.105Z,1037.51
2023-01-25T02:37:32.464Z,1037.48
2023-01-25T02:38:32.845Z,1037.53
2023-01-25T02:39:33.167Z,1037.47
2023-01-25T02:40:33.510Z,1037.46
2023-01-25T02:41:33.867Z,1037.47
2023-01-25T02:42:34.259Z,1037.46
2023-01-25T02:43:34.596Z,1037.42
2023-01-25T02:44:34.973Z,1037.37
2023-01-25T02:45:35.318Z,1037.44
2023-01-25T02:46:35.740Z,1037.47
2023-01-25T02:47:36.040Z,1037.37
2023-01-25T02:48:36.411Z,1037.35
2023-01-25T02:49:36.776Z,1037.38
2023-01-25T02:50:37.131Z,1037.36
2023-01-25T02:51:37.490Z,1037.34
2023-01-25T02:52:37.848Z,1037.34
2023-01-25T02:53:38.249Z,1037.32
2023-01-25T02:54:38.567Z,1037.33
2023-01-25T02:55:38.973Z,1037.30
2023-01-25T02:56:39.259Z,1037.26
2023-01-25T02:57:39.633Z,1037.26
2023-01-25T02:58:40.014Z,1037.22
2023-01-25T02:59:40.464Z,1037.20
2023-01-25T03:00:40.689Z,1037.21
2023-01-25T03:01:41.216Z,1037.22
2023-01-25T03:02:41.555Z,1037.26
2023-01-25T03:03:41.826Z,1037.22
2023-01-25T03:04:42.143Z,1037.26
2023-01-25T03:05:42.554Z,1037.23
2023-01-25T03:06:42.884Z,1037.22
2023-01-25T03:07:43.245Z,1037.20
2023-01-25T03:08:43.623Z,1037.22
2023-01-25T03:09:43.985Z,1037.24
2023-01-25T03:10:44.374Z,1037.22
2023-01-25T03:11:44.690Z,1037.26
2023-01-25T03:12:45.077Z,1037.22
2023-01-25T03:13:45.439Z,1037.26
2023-01-25T03:14:45.791Z,1037.22
2023-01-25T03:15:46.171Z,1037.25
2023-01-25T03:16:46.616Z,1037.26
2023-01-25T03:17:46.874Z,1037.23
2023-01-25T03:18:47.288Z,1037.24
2023-01-25T03:19:47.601Z,1037.20
2023-01-25T03:20:47.959Z,1037.23
2023-01-25T03:21:48.335Z,1037.23
2023-01-25T03:22:48.677Z,1037.19
2023-01-25T03:23:49.148Z,1037.17
2023-01-25T03:24:49.416Z,1037.17
2023-01-25T03:25:49.764Z,1037.14
2023-01-25T03:26:50.100Z,1037.15
2023-01-25T03:27:50.451Z,1037.13
2023-01-25T03:28:50.895Z,1037.12
2023-01-25T03:29:51.216Z,1037.02
2023-01-25T03:30:51.547Z,1037.04
2023-01-25T03:31:52.081Z,1037.07
2023-01-25T03:32:52.255Z,1037.04
2023-01-25T03:33:52.624Z,1036.98
2023-01-25T03:34:52.979Z,1037.03
2023-01-25T03:35:53.345Z,1037.00
2023-01-25T03:36:53.659Z,1037.01
2023-01-25T03:37:54.053Z,1036.94
2023-01-25T03:38:54.433Z,1036.95
2023-01-25T03:39:54.801Z,1036.95
2023-01-25T03:40:55.123Z,1036.93
2023-01-25T03:41:55.464Z,1036.93
2023-01-25T03:42:55.842Z,1036.93
2023-01-25T03:43:56.195Z,1036.84
2023-01-25T03:44:56.567Z,1036.91
2023-01-25T03:45:56.894Z,1036.87
2023-01-25T03:46:57.303Z,1036.94
2023-01-25T03:47:57.622Z,1036.87
2023-01-25T03:48:58.003Z,1036.84
2023-01-25T03:49:58.356Z,1036.84
2023-01-25T03:50:58.785Z,1036.84
2023-01-25T03:51:59.085Z,1036.83
2023-01-25T03:52:59.410Z,1036.85
2023-01-25T03:53:59.787Z,1036.81
2023-01-25T03:55:00.153Z,1036.81
2023-01-25T03:56:00.610Z,1036.79
2023-01-25T03:57:00.858Z,1036.77
2023-01-25T03:58:01.207Z,1036.76
2023-01-25T03:59:01.602Z,1036.75
2023-01-25T04:00:01.963Z,1036.74
2023-01-25T04:01:02.370Z,1036.75
2023-01-25T04:02:02.770Z,1036.72
2023-01-25T04:03:03.019Z,1036.73
2023-01-25T04:04:03.478Z,1036.77
2023-01-25T04:05:03.770Z,1036.72
2023-01-25T04:06:04.137Z,1036.74
2023-01-25T04:07:04.541Z,1036.72
2023-01-25T04:08:04.847Z,1036.76
2023-01-25T04:09:05.224Z,1036.75
2023-01-25T04:10:05.599Z,1036.77
2023-01-25T04:11:05.959Z,1036.76
2023-01-25T04:12:06.322Z,1036.75
2023-01-25T04:13:06.701Z,1036.73
2023-01-25T04:14:07.101Z,1036.73
2023-01-25T04:15:07.827Z,1036.74
2023-01-25T04:16:07.801Z,1036.68
2023-01-25T04:17:08.165Z,1036.73
2023-01-25T04:18:08.551Z,1036.70
2023-01-25T04:19:08.902Z,1036.67
2023-01-25T04:20:09.249Z,1036.64
2023-01-25T04:21:09.599Z,1036.65
2023-01-25T04:22:09.956Z,1036.60
2023-01-25T04:23:10.316Z,1036.65
2023-01-25T04:24:10.896Z,1036.65
2023-01-25T04:25:11.457Z,1036.66
2023-01-25T04:26:11.428Z,1036.59
2023-01-25T04:27:11.774Z,1036.56
2023-01-25T04:28:12.134Z,1036.62
2023-01-25T04:29:12.597Z,1036.63
2023-01-25T04:30:12.870Z,1036.59
2023-01-25T04:31:13.341Z,1036.61
2023-01-25T04:32:13.726Z,1036.64
2023-01-25T04:33:13.967Z,1036.62
2023-01-25T04:34:14.399Z,1036.65
2023-01-25T04:35:14.733Z,1036.57
2023-01-25T04:36:15.040Z,1036.54
2023-01-25T04:37:15.431Z,1036.55
2023-01-25T04:38:15.783Z,1036.52
2023-01-25T04:39:16.138Z,1036.50
2023-01-25T04:40:16.487Z,1036.51
2023-01-25T04:41:16.844Z,1036.48
2023-01-25T04:42:17.203Z,1036.49
2023-01-25T04:43:17.561Z,1036.47
2023-01-25T04:44:17.947Z,1036.49
2023-01-25T04:45:18.299Z,1036.49
2023-01-25T04:46:18.702Z,1036.46
2023-01-25T04:47:19.056Z,1036.39
2023-01-25T04:48:19.399Z,1036.41
2023-01-25T04:49:19.778Z,1036.32
2023-01-25T04:50:20.096Z,1036.30
2023-01-25T04:51:20.475Z,1036.30
2023-01-25T04:52:20.869Z,1036.24
2023-01-25T04:53:21.174Z,1036.21
2023-01-25T04:54:21.545Z,1036.16
2023-01-25T04:55:21.905Z,1036.12
2023-01-25T04:56:22.302Z,1036.16
2023-01-25T04:57:22.723Z,1036.13
2023-01-25T04:58:23.005Z,1036.17
2023-01-25T04:59:23.388Z,1036.20
2023-01-25T05:00:23.691Z,1036.21
2023-01-25T05:01:24.132Z,1036.28
2023-01-25T05:02:24.510Z,1036.29
2023-01-25T05:03:26.750Z,1036.32
2023-01-25T05:04:25.252Z,1036.26
2023-01-25T05:05:25.539Z,1036.20
2023-01-25T05:06:25.896Z,1036.24
2023-01-25T05:07:26.269Z,1036.22
2023-01-25T05:08:26.581Z,1036.18
2023-01-25T05:09:26.955Z,1036.14
2023-01-25T05:10:27.294Z,1036.13
2023-01-25T05:11:27.672Z,1036.21
2023-01-25T05:12:28.024Z,1036.20
2023-01-25T05:13:28.424Z,1036.17
2023-01-25T05:14:28.755Z,1036.17
2023-01-25T05:15:29.088Z,1036.18
2023-01-25T05:16:29.521Z,1036.18
2023-01-25T05:17:29.806Z,1036.18
2023-01-25T05:18:42.624Z,1036.08
2023-01-25T05:19:30.554Z,1036.17
2023-01-25T05:20:30.890Z,1036.05
2023-01-25T05:21:31.307Z,1036.12
2023-01-25T05:22:31.608Z,1036.07
2023-01-25T05:23:31.973Z,1036.13
2023-01-25T05:24:32.366Z,1036.08
2023-01-25T05:25:32.757Z,1036.12
2023-01-25T05:26:33.066Z,1036.10
2023-01-25T05:27:33.456Z,1036.08
2023-01-25T05:28:33.792Z,1036.13
2023-01-25T05:29:34.201Z,1036.16
2023-01-25T05:30:34.610Z,1036.18
2023-01-25T05:31:34.934Z,1036.11
2023-01-25T05:32:35.245Z,1036.10
2023-01-25T05:33:35.589Z,1036.08
2023-01-25T05:34:35.961Z,1036.02
2023-01-25T05:35:36.303Z,1036.06
2023-01-25T05:36:36.707Z,1035.99
2023-01-25T05:37:37.052Z,1035.96
2023-01-25T05:38:37.381Z,1035.97
2023-01-25T05:39:37.758Z,1035.92
2023-01-25T05:40:38.093Z,1035.92
2023-01-25T05:41:38.460Z,1035.89
2023-01-25T05:42:38.810Z,1035.91
2023-01-25T05:43:39.187Z,1035.93
2023-01-25T05:44:39.516Z,1035.87
2023-01-25T05:45:39.872Z,1035.92
2023-01-25T05:46:40.253Z,1035.89
2023-01-25T05:47:40.600Z,1035.87
2023-01-25T05:48:40.950Z,1035.90
2023-01-25T05:49:41.377Z,1035.92
2023-01-25T05:50:41.698Z,1035.91
2023-01-25T05:51:42.061Z,1035.92
2023-01-25T05:52:42.414Z,1035.92
2023-01-25T05:53:42.775Z,1035.92
2023-01-25T05:54:43.171Z,1035.92
2023-01-25T05:55:43.518Z,1035.97
2023-01-25T05:56:43.862Z,1035.94
2023-01-25T05:57:44.202Z,1035.88
2023-01-25T05:58:44.605Z,1035.88
2023-01-25T05:59:44.920Z,1035.87
2023-01-25T06:00:45.296Z,1035.88
2023-01-25T06:01:45.647Z,1035.85
2023-01-25T06:02:46.104Z,1035.81
2023-01-25T06:03:46.516Z,1035.77
2023-01-25T06:04:46.829Z,1035.77
2023-01-25T06:05:47.140Z,1035.72
2023-01-25T06:06:47.482Z,1035.69
2023-01-25T06:07:47.831Z,1035.68
2023-01-25T06:08:48.209Z,1035.66
2023-01-25T06:09:48.628Z,1035.73
2023-01-25T06:10:48.943Z,1035.68
2023-01-25T06:11:49.307Z,1035.71
2023-01-25T06:12:49.660Z,1035.69
2023-01-25T06:13:50.017Z,1035.70
2023-01-25T06:14:50.420Z,1035.71
2023-01-25T06:15:50.788Z,1035.75
2023-01-25T06:16:51.156Z,1035.77
2023-01-25T06:17:51.479Z,1035.76
2023-01-25T06:18:51.848Z,1035.77
2023-01-25T06:19:52.205Z,1035.76
2023-01-25T06:20:52.584Z,1035.73
2023-01-25T06:21:52.923Z,1035.71
2023-01-25T06:22:53.289Z,1035.74
2023-01-25T06:23:53.660Z,1035.76
2023-01-25T06:24:54.048Z,1035.74
2023-01-25T06:25:54.358Z,1035.75
2023-01-25T06:26:54.738Z,1035.76
2023-01-25T06:27:55.091Z,1035.78
2023-01-25T06:28:55.441Z,1035.78
2023-01-25T06:29:55.812Z,1035.83
2023-01-25T06:30:56.172Z,1035.83
2023-01-25T06:31:56.559Z,1035.87
2023-01-25T06:32:57.096Z,1035.81
2023-01-25T06:33:57.360Z,1035.79
2023-01-25T06:34:57.636Z,1035.77
2023-01-25T06:35:57.982Z,1035.78
2023-01-25T06:36:58.359Z,1035.82
2023-01-25T06:37:58.732Z,1035.77
2023-01-25T06:38:59.050Z,1035.76
2023-01-25T06:39:59.434Z,1035.79
2023-01-25T06:40:59.762Z,1035.82
2023-01-25T06:42:00.144Z,1035.78
2023-01-25T06:43:00.493Z,1035.82
2023-01-25T06:44:00.876Z,1035.78
2023-01-25T06:45:01.271Z,1035.78
2023-01-25T06:46:01.624Z,1035.79
2023-01-25T06:47:01.961Z,1035.84
2023-01-25T06:48:02.367Z,1035.79
2023-01-25T06:49:02.675Z,1035.81
2023-01-25T06:50:03.061Z,1035.78
2023-01-25T06:51:03.455Z,1035.83
2023-01-25T06:52:03.758Z,1035.79
2023-01-25T06:53:04.115Z,1035.84
2023-01-25T06:54:04.543Z,1035.85
2023-01-25T06:55:04.852Z,1035.79
2023-01-25T06:56:05.220Z,1035.83
2023-01-25T06:57:05.555Z,1035.78
2023-01-25T06:58:05.907Z,1035.74
2023-01-25T06:59:06.283Z,1035.75
2023-01-25T07:00:06.655Z,1035.73
2023-01-25T07:01:07.031Z,1035.72
2023-01-25T07:02:07.531Z,1035.73
2023-01-25T07:03:07.826Z,1035.67
2023-01-25T07:04:09.005Z,1035.72
2023-01-25T07:05:08.941Z,1035.72
2023-01-25T07:06:08.797Z,1035.71
2023-01-25T07:07:09.250Z,1035.73
2023-01-25T07:08:09.553Z,1035.70
2023-01-25T07:09:09.951Z,1035.65
2023-01-25T07:10:10.072Z,1035.65
2023-01-25T07:11:10.233Z,1035.67
2023-01-25T07:12:10.400Z,1035.64
2023-01-25T07:13:10.619Z,1035.61
2023-01-25T07:14:10.740Z,1035.59
2023-01-25T07:15:11.287Z,1035.62
2023-01-25T07:16:11.201Z,1035.62
2023-01-25T07:17:11.384Z,1035.62
2023-01-25T07:18:16.524Z,1035.56
2023-01-25T07:19:11.823Z,1035.58
2023-01-25T07:20:12.254Z,1035.58
2023-01-25T07:21:12.621Z,1035.55
2023-01-25T07:22:12.804Z,1035.58
2023-01-25T07:23:12.986Z,1035.57
2023-01-25T07:24:13.347Z,1035.55
2023-01-25T07:25:13.570Z,1035.53
2023-01-25T07:26:13.720Z,1035.48
2023-01-25T07:27:13.887Z,1035.54
2023-01-25T07:28:14.044Z,1035.53
2023-01-25T07:29:14.235Z,1035.48
2023-01-25T07:30:14.417Z,1035.46
2023-01-25T07:31:14.747Z,1035.43
2023-01-25T07:32:14.941Z,1035.43
2023-01-25T07:33:15.158Z,1035.44
2023-01-25T07:34:15.421Z,1035.47
2023-01-25T07:35:15.587Z,1035.46
2023-01-25T07:36:15.716Z,1035.45
2023-01-25T07:37:16.029Z,1035.45
2023-01-25T07:38:16.206Z,1035.47
2023-01-25T07:39:16.488Z,1035.46
2023-01-25T07:40:16.706Z,1035.42
2023-01-25T07:41:16.876Z,1035.47
2023-01-25T07:42:17.083Z,1035.47
2023-01-25T07:43:17.384Z,1035.46
2023-01-25T07:44:17.563Z,1035.44
2023-01-25T07:45:17.740Z,1035.45
2023-01-25T07:46:17.884Z,1035.47
2023-01-25T07:47:18.077Z,1035.49
2023-01-25T07:48:18.360Z,1035.48
2023-01-25T07:49:18.551Z,1035.44
2023-01-25T07:50:18.819Z,1035.44
2023-01-25T07:51:18.972Z,1035.45
2023-01-25T07:52:19.161Z,1035.41
2023-01-25T07:53:19.321Z,1035.36
2023-01-25T07:54:19.459Z,1035.32
2023-01-25T07:55:19.687Z,1035.34
2023-01-25T07:56:19.815Z,1035.31
2023-01-25T07:57:19.975Z,1035.33
2023-01-25T07:58:20.140Z,1035.29
2023-01-25T07:59:20.340Z,1035.26
2023-01-25T08:00:20.507Z,1035.24
2023-01-25T08:01:20.666Z,1035.18
2023-01-25T08:02:20.851Z,1035.18
2023-01-25T08:03:21.037Z,1035.13
2023-01-25T08:04:21.223Z,1035.12
2023-01-25T08:05:21.516Z,1035.14
2023-01-25T08:06:21.802Z,1035.14
2023-01-25T08:07:22.046Z,1035.21
2023-01-25T08:08:22.231Z,1035.12
2023-01-25T08:09:22.405Z,1035.17
2023-01-25T08:10:22.763Z,1035.17
2023-01-25T08:11:22.880Z,1035.19
2023-01-25T08:12:23.072Z,1035.17
2023-01-25T08:13:23.217Z,1035.19
2023-01-25T08:14:23.402Z,1035.18
2023-01-25T08:15:23.595Z,1035.10
2023-01-25T08:16:23.761Z,1035.13
2023-01-25T08:17:24.030Z,1035.08
2023-01-25T08:18:24.239Z,1035.03
2023-01-25T08:19:24.396Z,1035.02
2023-01-25T08:20:24.664Z,1035.06
2023-01-25T08:21:24.736Z,1035.12
2023-01-25T08:22:25.022Z,1035.05
2023-01-25T08:23:25.323Z,1035.08
2023-01-25T08:24:25.734Z,1035.08
2023-01-25T08:25:25.688Z,1035.10
2023-01-25T08:26:25.828Z,1035.04
2023-01-25T08:27:26.007Z,1035.07
2023-01-25T08:28:26.181Z,1035.10
2023-01-25T08:29:26.368Z,1035.07
2023-01-25T08:30:26.599Z,1035.12
2023-01-25T08:31:26.909Z,1035.11
2023-01-25T08:32:27.023Z,1035.07
2023-01-25T08:33:27.285Z,1035.08
2023-01-25T08:34:27.483Z,1035.09
2023-01-25T08:35:27.679Z,1035.09
2023-01-25T08:36:27.868Z,1035.04
2023-01-25T08:37:28.007Z,1035.02
2023-01-25T08:38:28.191Z,1034.97
2023-01-25T08:39:28.365Z,1034.91
2023-01-25T08:40:28.592Z,1034.93
2023-01-25T08:41:28.725Z,1034.88
2023-01-25T08:42:28.895Z,1034.82
2023-01-25T08:43:29.211Z,1034.79
2023-01-25T08:44:29.351Z,1034.79
2023-01-25T08:45:29.546Z,1034.76
2023-01-25T08:46:31.342Z,1034.79
2023-01-25T08:47:29.895Z,1034.71
2023-01-25T08:48:30.196Z,1034.74
2023-01-25T08:49:30.466Z,1034.64
2023-01-25T08:50:30.682Z,1034.69
2023-01-25T08:51:30.790Z,1034.65
2023-01-25T08:52:30.973Z,1034.64
2023-01-25T08:53:31.201Z,1034.66
2023-01-25T08:54:31.482Z,1034.62
2023-01-25T08:55:31.643Z,1034.65
2023-01-25T08:56:31.826Z,1034.63
2023-01-25T08:57:32.102Z,1034.61
2023-01-25T08:58:32.287Z,1034.57
2023-01-25T08:59:32.469Z,1034.53
2023-01-25T09:00:32.652Z,1034.54
2023-01-25T09:01:32.812Z,1034.47
2023-01-25T09:02:33.055Z,1034.48
2023-01-25T09:03:33.323Z,1034.47
2023-01-25T09:04:33.471Z,1034.45
2023-01-25T09:05:33.797Z,1034.43
2023-01-25T09:06:33.927Z,1034.48
2023-01-25T09:07:34.091Z,1034.48
2023-01-25T09:08:34.379Z,1034.50
2023-01-25T09:09:34.591Z,1034.57
2023-01-25T09:10:34.803Z,1034.59
2023-01-25T09:11:34.919Z,1034.61
2023-01-25T09:12:35.103Z,1034.64
2023-01-25T09:13:35.259Z,1034.63
2023-01-25T09:14:35.479Z,1034.62
2023-01-25T09:15:35.762Z,1034.61
2023-01-25T09:16:35.931Z,1034.60
2023-01-25T09:17:36.092Z,1034.48
2023-01-25T09:18:36.637Z,1034.47
2023-01-25T09:19:36.564Z,1034.47
2023-01-25T09:20:36.781Z,1034.45
2023-01-25T09:21:36.937Z,1034.42
2023-01-25T09:22:37.205Z,1034.40
2023-01-25T09:23:50.322Z,1034.39
2023-01-25T09:24:37.852Z,1034.40
2023-01-25T09:25:38.100Z,1034.38
2023-01-25T09:26:38.268Z,1034.40
2023-01-25T09:27:38.434Z,1034.35
2023-01-25T09:28:38.614Z,1034.34
2023-01-25T09:29:39.671Z,1034.34
2023-01-25T09:30:46.895Z,1034.28
2023-01-25T09:31:39.575Z,1034.31
2023-01-25T09:32:39.600Z,1034.32
2023-01-25T09:33:39.708Z,1034.31
2023-01-25T09:34:39.896Z,1034.35
2023-01-25T09:35:40.180Z,1034.34
2023-01-25T09:36:40.384Z,1034.34
2023-01-25T09:37:40.547Z,1034.35
2023-01-25T09:38:40.807Z,1034.35
2023-01-25T09:39:40.995Z,1034.32
2023-01-25T09:40:41.246Z,1034.34
2023-01-25T09:41:41.461Z,1034.30
2023-01-25T09:42:41.641Z,1034.38
2023-01-25T09:43:41.833Z,1034.29
2023-01-25T09:44:41.984Z,1034.26
2023-01-25T09:45:42.171Z,1034.21
2023-01-25T09:46:42.331Z,1034.22
2023-01-25T09:47:42.554Z,1034.20
2023-01-25T09:48:42.699Z,1034.24
2023-01-25T09:49:42.856Z,1034.23
2023-01-25T09:50:43.072Z,1034.17
2023-01-25T09:51:43.215Z,1034.11
2023-01-25T09:52:43.409Z,1034.14
2023-01-25T09:53:43.679Z,1034.16
2023-01-25T09:54:46.962Z,1034.07
2023-01-25T09:55:44.068Z,1034.06
2023-01-25T09:56:44.259Z,1034.03
2023-01-25T09:57:44.507Z,1033.99
2023-01-25T09:58:44.693Z,1033.98
2023-01-25T09:59:44.845Z,1034.00
2023-01-25T10:00:45.046Z,1034.01
2023-01-25T10:01:45.413Z,1034.05
2023-01-25T10:02:45.671Z,1034.06
2023-01-25T10:03:45.767Z,1034.05
2023-01-25T10:04:45.997Z,1034.06
2023-01-25T10:05:46.175Z,1034.02
2023-01-25T10:06:59.731Z,1034.02
2023-01-25T10:07:46.708Z,1033.98
2023-01-25T10:08:46.925Z,1034.03
2023-01-25T10:09:47.120Z,1033.99
2023-01-25T10:10:47.405Z,1033.99
2023-01-25T10:11:47.639Z,1033.97
2023-01-25T10:12:47.823Z,1033.96
2023-01-25T10:13:48.103Z,1033.90
2023-01-25T10:14:48.290Z,1033.95
2023-01-25T10:15:48.675Z,1033.94
2023-01-25T10:16:48.870Z,1033.88
2023-01-25T10:17:49.048Z,1033.92
2023-01-25T10:18:49.258Z,1033.97
2023-01-25T10:19:49.529Z,1033.93
2023-01-25T10:20:49.697Z,1033.90
2023-01-25T10:21:49.991Z,1033.95
2023-01-25T10:22:50.186Z,1033.90
2023-01-25T10:23:50.326Z,1033.86
2023-01-25T10:24:50.510Z,1033.88
2023-01-25T10:25:50.719Z,1033.86
2023-01-25T10:26:50.863Z,1033.82
2023-01-25T10:27:51.147Z,1033.77
2023-01-25T10:28:51.528Z,1033.77
2023-01-25T10:29:51.615Z,1033.77
2023-01-25T10:30:52.136Z,1033.75
2023-01-25T10:31:52.105Z,1033.74
2023-01-25T10:32:56.101Z,1033.72
2023-01-25T10:33:52.432Z,1033.73
2023-01-25T10:34:57.227Z,1033.69
2023-01-25T10:35:52.953Z,1033.74
2023-01-25T10:36:53.215Z,1033.70
2023-01-25T10:37:53.374Z,1033.68
2023-01-25T10:38:53.545Z,1033.63
2023-01-25T10:39:53.741Z,1033.60
2023-01-25T10:40:53.934Z,1033.55
2023-01-25T10:41:54.185Z,1033.53
2023-01-25T10:42:54.364Z,1033.47
2023-01-25T10:43:54.548Z,1033.43
2023-01-25T10:44:54.729Z,1033.43
2023-01-25T10:45:55.014Z,1033.42
2023-01-25T10:46:55.296Z,1033.40
2023-01-25T10:47:55.577Z,1033.44
2023-01-25T10:48:55.751Z,1033.42
2023-01-25T10:49:56.042Z,1033.44
2023-01-25T10:50:56.237Z,1033.44
2023-01-25T10:51:56.389Z,1033.44
2023-01-25T10:52:56.566Z,1033.46
2023-01-25T10:53:56.873Z,1033.45
2023-01-25T10:54:57.033Z,1033.43
2023-01-25T10:55:57.349Z,1033.41
2023-01-25T10:56:57.525Z,1033.39
2023-01-25T10:57:57.718Z,1033.37
2023-01-25T10:58:57.851Z,1033.37
2023-01-25T10:59:58.031Z,1033.32
2023-01-25T11:00:58.253Z,1033.31
2023-01-25T11:01:58.577Z,1033.30
2023-01-25T11:02:58.745Z,1033.26
2023-01-25T11:03:58.867Z,1033.25
2023-01-25T11:04:59.043Z,1033.20
2023-01-25T11:05:59.282Z,1033.21
2023-01-25T11:06:59.406Z,1033.16
2023-01-25T11:07:59.554Z,1033.16
2023-01-25T11:08:59.735Z,1033.13
2023-01-25T11:09:59.933Z,1033.07
2023-01-25T11:11:00.132Z,1033.05
2023-01-25T11:12:00.377Z,1033.05
2023-01-25T11:13:00.570Z,1032.97
2023-01-25T11:14:00.718Z,1032.99
2023-01-25T11:15:00.929Z,1032.94
2023-01-25T11:16:01.136Z,1032.94
2023-01-25T11:17:01.249Z,1032.91
2023-01-25T11:18:01.431Z,1032.85
2023-01-25T11:19:01.611Z,1032.85
2023-01-25T11:20:01.799Z,1032.85
2023-01-25T11:21:01.968Z,1032.83
2023-01-25T11:22:02.167Z,1032.85
2023-01-25T11:23:02.313Z,1032.76
2023-01-25T11:24:03.589Z,1032.79
2023-01-25T11:25:02.708Z,1032.77
2023-01-25T11:26:02.875Z,1032.76
2023-01-25T11:27:03.008Z,1032.66
2023-01-25T11:28:03.232Z,1032.61
2023-01-25T11:29:03.486Z,1032.58
2023-01-25T11:30:03.638Z,1032.54
2023-01-25T11:31:03.927Z,1032.50
2023-01-25T11:32:04.060Z,1032.47
2023-01-25T11:33:04.172Z,1032.46
2023-01-25T11:34:04.340Z,1032.45
2023-01-25T11:35:04.585Z,1032.46
2023-01-25T11:36:04.717Z,1032.47
2023-01-25T11:37:04.868Z,1032.47
2023-01-25T11:38:05.069Z,1032.43
2023-01-25T11:39:05.228Z,1032.44
2023-01-25T11:40:05.393Z,1032.40
2023-01-25T11:41:05.588Z,1032.41
2023-01-25T11:42:05.796Z,1032.41
2023-01-25T11:43:06.052Z,1032.41
2023-01-25T11:44:06.357Z,1032.29
2023-01-25T11:45:06.497Z,1032.28
2023-01-25T11:46:06.761Z,1032.33
2023-01-25T11:47:06.988Z,1032.32
2023-01-25T11:48:07.149Z,1032.26
2023-01-25T11:49:13.942Z,1032.21
2023-01-25T11:50:08.763Z,1032.15
2023-01-25T11:51:07.824Z,1032.18
2023-01-25T11:52:08.073Z,1032.08
2023-01-25T11:53:08.245Z,1032.04
2023-01-25T11:54:08.626Z,1032.04
2023-01-25T11:55:08.716Z,1031.95
2023-01-25T11:56:09.001Z,1031.97
2023-01-25T11:57:09.164Z,1031.97
2023-01-25T11:58:09.360Z,1031.95
2023-01-25T11:59:09.536Z,1031.91
2023-01-25T12:00:10.290Z,1031.93
2023-01-25T12:01:10.016Z,1031.98
2023-01-25T12:02:10.288Z,1031.90
2023-01-25T12:03:10.628Z,1031.82
2023-01-25T12:04:10.959Z,1031.80
2023-01-25T12:05:21.061Z,1031.79
2023-01-25T12:06:11.371Z,1031.79
2023-01-25T12:07:11.621Z,1031.78
2023-01-25T12:08:11.787Z,1031.71
2023-01-25T12:09:11.950Z,1031.75